Flight Track Log - Related Links

Times and Time Zones

All times are in EDT time to prevent confusion due to time zone crossing. See the N100MJ flight status page for this flight to view local times or setup timezone preferences in your user account.

Time Position Orientation Groundspeed Altitude Reporting Facility
EDT Latitude Longitude Course Direction KTS MPH feet Rate Location/Type
Thu 10:35:56 AM 35.3611 -79.1908 36° Northeast 133 153 4,400  Level Washington Center
Thu 10:36:56 AM 35.3894 -79.1514 49° Northeast 144 166 4,900 313 Climbing Washington Center
Thu 10:37:00 AM 35.4486 -79.1719 31° Northeast  Level FlightAware Approximate
Thu 10:37:51 AM 35.4178 -79.1169 45° Northeast 165 190 5,000  Level Washington Center
Thu 10:38:00 AM 35.4879 -79.1424 31° Northeast  Level FlightAware Approximate
Thu 10:38:46 AM 35.4458 -79.0825 45° Northeast 162 186 5,600  Level Washington Center
Thu 10:39:00 AM 35.5166 -79.1001 58° Northeast  Level FlightAware Approximate
Thu 10:39:47 AM 35.4781 -79.0456 43° Northeast 152 175 6,200  Level Washington Center
Thu 10:40:00 AM 35.5537 -79.0666 36° Northeast  Level FlightAware Approximate
Thu 10:40:54 AM 35.5108 -79.0036 46° Northeast 151 174 6,900  Level Washington Center
Thu 10:41:00 AM 35.5908 -79.0332 36° Northeast  Level FlightAware Approximate
Thu 10:41:57 AM 35.5447 -78.9769 33° Northeast 148 170 7,500  Level Washington Center
Thu 10:42:57 AM 35.5811 -78.9478 33° Northeast 148 170 8,100 632 Climbing Washington Center
Thu 10:43:51 AM 35.6111 -78.9236 33° Northeast 149 171 8,700 677 Climbing Washington Center
Thu 10:45:10 AM 35.6581 -78.8847 34° Northeast 150 173 9,600 677 Climbing Washington Center
Thu 10:46:04 AM 35.6900 -78.8553 37° Northeast 150 173 10,200 604 Climbing Washington Center
Thu 10:47:59 AM 35.7542 -78.8042 33° Northeast 162 186 11,300 555 Climbing Washington Center
Thu 10:48:57 AM 35.7903 -78.7750 33° Northeast 162 186 11,800 407 Climbing Washington Center
Thu 10:49:57 AM 35.8286 -78.7431 34° Northeast 157 181 12,100 446 Climbing Washington Center
Thu 10:50:58 AM 35.8672 -78.7114 34° Northeast 157 181 12,700 393 Climbing Washington Center
Thu 10:51:59 AM 35.9033 -78.6794 36° Northeast 157 181 12,900 101 Climbing Washington Center
Thu 10:52:57 AM 35.9439 -78.6478 32° Northeast 157 181 12,900  Level Washington Center
Thu 10:53:58 AM 35.9822 -78.6131 36° Northeast 162 186 12,900  Level Washington Center
Thu 10:54:58 AM 36.0206 -78.5814 34° Northeast 162 186 12,900  Level Washington Center
Thu 10:55:59 AM 36.0592 -78.5494 34° Northeast 162 186 12,900  Level Washington Center
Thu 10:57:00 AM 36.0975 -78.5147 36° Northeast 167 192 12,900  Level Washington Center
Thu 10:57:57 AM 36.1358 -78.4853 32° Northeast 167 192 12,900  Level Washington Center
Thu 10:58:57 AM 36.1619 -78.4375 56° Northeast 160 184 12,900  Level Washington Center
Thu 10:59:58 AM 36.1903 -78.3844 56° Northeast 167 192 12,900  Level Washington Center
Thu 11:00:58 AM 36.2142 -78.3389 57° Northeast 167 192 12,900  Level Washington Center
Thu 11:01:58 AM 36.2467 -78.2936 48° Northeast 162 186 12,900  Level Washington Center
Thu 11:02:59 AM 36.2786 -78.2586 41° Northeast 162 186 12,900  Level Washington Center
Thu 11:04:00 AM 36.3172 -78.2214 38° Northeast 162 186 12,900  Level Washington Center
Thu 11:04:57 AM 36.3469 -78.1914 39° Northeast 162 186 12,900  Level Washington Center
Thu 11:05:57 AM 36.3853 -78.1539 38° Northeast 162 186 12,900  Level Washington Center
Thu 11:06:58 AM 36.4236 -78.1242 32° Northeast 162 186 12,900  Level Washington Center
Thu 11:07:59 AM 36.4597 -78.0919 36° Northeast 157 181 12,900  Level Washington Center
Thu 11:08:59 AM 36.5000 -78.0594 33° Northeast 157 181 12,900  Level Washington Center
Thu 11:09:59 AM 36.5342 -78.0244 39° Northeast 157 181 12,900  Level Washington Center
Thu 11:10:57 AM 36.5722 -77.9947 32° Northeast 157 181 12,900  Level Washington Center
Thu 11:11:58 AM 36.6106 -77.9622 34° Northeast 157 181 12,900  Level Washington Center
Thu 11:12:59 AM 36.6464 -77.9322 34° Northeast 157 181 12,900 50 Level Washington Center
Thu 11:13:57 AM 36.6825 -77.8994 36° Northeast 157 181 13,000  Climbing Washington Center
Thu 11:14:58 AM 36.7208 -77.8669 34° Northeast 152 175 12,900 -50 Descending Washington Center
Thu 11:15:58 AM 36.7567 -77.8369 34° Northeast 152 175 12,900  Level Washington Center
Thu 11:16:59 AM 36.7928 -77.8069 34° Northeast 152 175 12,900  Level Washington Center
Thu 11:17:57 AM 36.8267 -77.7742 38° Northeast 152 175 12,900  Level Washington Center
Thu 11:18:58 AM 36.8606 -77.7464 33° Northeast 157 181 12,900  Level Washington Center
Thu 11:19:59 AM 36.8967 -77.7139 36° Northeast 157 181 12,900  Level Washington Center
Thu 11:20:57 AM 36.9328 -77.6861 32° Northeast 151 174 12,900  Level Washington Center
Thu 11:21:57 AM 36.9686 -77.6533 36° Northeast 151 174 12,900  Level Washington Center
Thu 11:22:57 AM 37.0067 -77.6231 32° Northeast 151 174 12,900  Level Washington Center
Thu 11:23:58 AM 37.0428 -77.5928 34° Northeast 151 174 12,900  Level Washington Center
Thu 11:24:59 AM 37.0786 -77.5625 34° Northeast 151 174 12,900  Level Washington Center
Thu 11:25:57 AM 37.1167 -77.5322 32° Northeast 151 174 12,900  Level Washington Center
Thu 11:26:57 AM 37.1528 -77.5019 34° Northeast 151 174 12,900  Level Washington Center
Thu 11:27:58 AM 37.1906 -77.4742 30° Northeast 151 174 12,900  Level Washington Center
Thu 11:28:59 AM 37.2267 -77.4439 34° Northeast 151 174 12,900  Level Washington Center
Thu 11:29:57 AM 37.2647 -77.4161 30° Northeast 151 174 12,900  Level Washington Center
Thu 11:30:58 AM 37.3006 -77.3828 36° Northeast 151 174 12,900  Level Washington Center
Thu 11:31:58 AM 37.3364 -77.3525 34° Northeast 151 174 12,900  Level Washington Center
Thu 11:32:59 AM 37.3744 -77.3219 33° Northeast 151 174 12,900  Level Washington Center
Thu 11:33:56 AM 37.4125 -77.2914 33° Northeast 151 174 12,900  Level Washington Center
Thu 11:34:57 AM 37.4503 -77.2633 31° Northeast 151 174 12,900  Level Washington Center
Thu 11:35:57 AM 37.4864 -77.2328 34° Northeast 151 174 12,900  Level Washington Center
Thu 11:36:58 AM 37.5242 -77.2022 33° Northeast 151 174 12,900  Level Washington Center
Thu 11:37:58 AM 37.5622 -77.1717 32° Northeast 151 174 12,900  Level Washington Center
Thu 11:38:59 AM 37.5981 -77.1408 34° Northeast 151 174 12,900  Level Washington Center
Thu 11:39:57 AM 37.6358 -77.1103 33° Northeast 151 174 12,900  Level Washington Center
Thu 11:40:58 AM 37.6758 -77.0822 29° Northeast 156 180 12,900  Level Washington Center
Thu 11:41:59 AM 37.7139 -77.0539 30° Northeast 156 180 12,900  Level Washington Center
Thu 11:42:59 AM 37.7517 -77.0231 33° Northeast 156 180 12,900  Level Washington Center
Thu 11:43:57 AM 37.7897 -76.9950 30° Northeast 156 180 12,900  Level Washington Center
Thu 11:44:57 AM 37.8275 -76.9617 35° Northeast 161 185 12,900  Level Washington Center
Thu 11:45:59 AM 37.8633 -76.9306 34° Northeast 161 185 12,900  Level Washington Center
Thu 11:46:57 AM 37.9011 -76.8997 33° Northeast 161 185 12,900  Level Washington Center
Thu 11:47:57 AM 37.9392 -76.8689 33° Northeast 155 178 12,900  Level Washington Center
Thu 11:48:59 AM 37.9769 -76.8353 35° Northeast 155 178 12,900  Level Washington Center
Thu 11:49:59 AM 38.0067 -76.7908 50° Northeast 155 178 12,900  Level Washington Center
Thu 11:50:57 AM 38.0364 -76.7492 48° Northeast 155 178 12,900  Level Washington Center
Thu 11:51:58 AM 38.0658 -76.7075 48° Northeast 155 178 12,900  Level Washington Center
Thu 11:52:59 AM 38.0975 -76.6631 48° Northeast 160 184 12,900  Level Washington Center
Thu 11:53:57 AM 38.1272 -76.6186 50° Northeast 160 184 12,900  Level Washington Center
Thu 11:54:57 AM 38.1589 -76.5742 48° Northeast 160 184 12,900  Level Washington Center
Thu 11:55:59 AM 38.1883 -76.5322 48° Northeast 160 184 12,900  Level Washington Center
Thu 11:56:59 AM 38.2178 -76.4931 46° Northeast 160 184 12,900  Level Washington Center
Thu 11:57:57 AM 38.2536 -76.4431 48° Northeast 160 184 12,900  Level Washington Center
Thu 11:58:57 AM 38.2853 -76.3986 48° Northeast 160 184 12,900  Level Washington Center
Thu 11:59:57 AM 38.3186 -76.3725 32° Northeast 155 178 12,900  Level Washington Center
Thu 12:00:58 PM 38.3544 -76.3408 35° Northeast 155 178 12,900  Level Washington Center
Thu 12:01:59 PM 38.3919 -76.3069 35° Northeast 155 178 12,900  Level Washington Center
Thu 12:02:57 PM 38.4256 -76.2728 39° Northeast 155 178 12,900  Level Washington Center
Thu 12:03:58 PM 38.4633 -76.2386 35° Northeast 150 173 12,900  Level Washington Center
Thu 12:04:59 PM 38.5011 -76.2019 37° Northeast 150 173 12,900 -98 Level Washington Center
Thu 12:06:00 PM 38.5389 -76.1678 35° Northeast 150 173 12,700 -305 Descending Washington Center
Thu 12:06:57 PM 38.5681 -76.1308 45° Northeast 155 178 12,300 -407 Descending Washington Center
Thu 12:07:58 PM 38.6161 -76.0939 31° Northeast 167 192 11,900 -393 Descending Washington Center
Thu 12:08:59 PM 38.6561 -76.0594 34° Northeast 172 198 11,500 -400 Descending Washington Center
Thu 12:09:58 PM 38.6936 -76.0200 39° Northeast 172 198 11,100 -450 Descending Washington Center
Thu 12:10:59 PM 38.7314 -75.9856 35° Northeast 172 198 10,600 -496 Descending Washington Center
Thu 12:11:59 PM 38.7669 -75.9511 37° Northeast 172 198 10,100 -559 Descending Washington Center
Thu 12:12:57 PM 38.8025 -75.9192 35° Northeast 172 198 9,500 -555 Descending Washington Center
Thu 12:13:58 PM 38.8378 -75.8875 35° Northeast 167 192 9,000 -496 Descending Washington Center
Thu 12:14:58 PM 38.8714 -75.8556 36° Northeast 156 180 8,500 -500 Descending Washington Center
Thu 12:15:58 PM 38.9069 -75.8236 35° Northeast 156 180 8,000 -496 Descending Washington Center
Thu 12:16:59 PM 38.9403 -75.7917 37° Northeast 151 174 7,500 -446 Descending Washington Center
Thu 12:17:59 PM 38.9736 -75.7625 34° Northeast 151 174 7,100 -347 Descending Washington Center
Thu 12:19:00 PM 39.0069 -75.7333 34° Northeast 146 168 6,800 -125 Descending Washington Center
Thu 12:21:00 PM 39.0903 -75.6265 38° Northeast  Level FlightAware Approximate
Thu 12:28:00 PM 39.3135 -75.3454 51° Northeast  Level FlightAware Approximate
Thu 12:29:00 PM 39.3416 -75.3003 51° Northeast  Level FlightAware Approximate
Thu 12:30:00 PM 39.3698 -75.2551 51° Northeast  Level FlightAware Approximate
Thu 12:31:00 PM 39.3946 -75.2070 61° Northeast  Level FlightAware Approximate
Thu 12:32:00 PM 39.4164 -75.1563 61° Northeast  Level FlightAware Approximate
Thu 12:33:00 PM 39.4398 -75.1070 49° Northeast  Level FlightAware Approximate
Thu 12:34:00 PM 39.4691 -75.0631 49° Northeast  Level FlightAware Approximate
Thu 12:34:51 PM 39.4458 -75.1239 57° Northeast 160 184 5,000  Level Washington Center
Thu 12:35:00 PM 39.4984 -75.0191 49° Northeast  Level FlightAware Approximate
Thu 12:36:00 PM 39.5277 -74.9751 49° Northeast  Level FlightAware Approximate
Thu 12:36:00 PM 39.4848 -75.0801 41° Northeast  Level Estimated
Thu 12:37:00 PM 39.5531 -74.9272 57° Northeast  Level FlightAware Approximate
Thu 12:38:00 PM 39.5775 -74.8784 57° Northeast  Level FlightAware Approximate
Thu 12:39:00 PM 39.6020 -74.8296 57° Northeast  Level FlightAware Approximate
Thu 12:40:00 PM 39.6264 -74.7808 57° Northeast  Level FlightAware Approximate
Thu 12:43:00 PM 39.7216 -74.8126 41° Northeast  Level Estimated
Thu 12:44:00 PM 39.7554 -74.7742 41° Northeast  Level Estimated
Thu 12:45:00 PM 39.7886 -74.7364 50° Northeast  Level Estimated
Thu 12:46:00 PM 39.8104 -74.6865 60° Northeast  Level FlightAware Approximate
Thu 12:47:00 PM 39.8322 -74.6366 60° Northeast  Level FlightAware Approximate
Thu 12:48:00 PM 39.8540 -74.5866 60° Northeast  Level FlightAware Approximate
Thu 12:49:00 PM 39.8758 -74.5366 60° Northeast  Level FlightAware Approximate
Thu 12:50:00 PM 39.8976 -74.4866 60° Northeast  Level FlightAware Approximate
Thu 12:51:00 PM 39.9193 -74.4365 60° Northeast  Level FlightAware Approximate
Thu 12:52:00 PM 39.9410 -74.3865 61° Northeast  Level FlightAware Approximate
Thu 12:53:00 PM 39.9627 -74.3363 61° Northeast  Level FlightAware Approximate
Thu 12:54:00 PM 39.9844 -74.2862 61° Northeast  Level FlightAware Approximate
Thu 12:55:00 PM 40.0130 -74.2344 43° Northeast  Level FlightAware Approximate
Thu 12:56:00 PM 40.0455 -74.1954 43° Northeast  Level FlightAware Approximate
Thu 12:56:52 PM 40.0333 -74.2167 28° Northeast 147 169 5,000  Level New York TRACON
Thu 12:57:00 PM 40.0780 -74.1564 43° Northeast  Level FlightAware Approximate
Thu 12:57:56 PM 40.0833 -74.1833 27° Northeast 151 174 4,900  Level New York TRACON
Thu 12:58:00 PM 40.1178 -74.1328 21° North  Level FlightAware Approximate
Thu 12:58:56 PM 40.1167 -74.1500 37° Northeast 149 171 5,000  Level New York TRACON
Thu 12:59:00 PM 40.1590 -74.1122 21° North  Level FlightAware Approximate
Thu 12:59:56 PM 40.1500 -74.1333 21° North 149 171 4,900  Level New York TRACON
Thu 01:00:00 PM 40.1952 -74.0822 49° Northeast  Level FlightAware Approximate
Thu 01:00:56 PM 40.1833 -74.1000 37° Northeast 151 174 5,000  Level New York TRACON
Thu 01:01:00 PM 40.2268 -74.0429 28° Northeast  Level FlightAware Approximate
Thu 01:01:56 PM 40.2167 -74.0667 37° Northeast 149 171 5,000  Level New York TRACON
Thu 01:02:00 PM 40.2657 -74.0155 28° Northeast  Level FlightAware Approximate
Thu 01:02:56 PM 40.2500 -74.0500 21° North 149 171 5,000  Level New York TRACON
Thu 01:03:56 PM 40.2833 -74.0167 37° Northeast 150 173 4,900  Descending New York TRACON
Thu 01:04:56 PM 40.3333 -74.0000 14° North 151 174 5,000 50 Climbing New York TRACON
Thu 01:05:56 PM 40.3667 -73.9667 37° Northeast 150 173 5,000  Level New York TRACON
Thu 01:06:56 PM 40.4000 -73.9500 21° North 148 170 5,000  Level New York TRACON
Thu 01:07:56 PM 40.4333 -73.9167 37° Northeast 151 174 5,000  Level New York TRACON
Thu 01:08:56 PM 40.4667 -73.8833 37° Northeast 150 173 5,000  Level New York TRACON
Thu 01:09:56 PM 40.5000 -73.8667 21° North 148 170 5,000 -50 Level New York TRACON
Thu 01:10:56 PM 40.5500 -73.8333 27° Northeast 146 168 4,900 -50 Descending New York TRACON
Thu 01:11:56 PM 40.5833 -73.8167 21° North 144 166 4,900 50 Level New York TRACON
Thu 01:12:56 PM 40.6167 -73.7833 37° Northeast 138 159 5,000 33 Climbing New York TRACON
Thu 01:14:00 PM 40.6475 -73.7336 39° Northeast  Level FlightAware Approximate
Thu 01:14:56 PM 40.6833 -73.7167 39° Northeast 138 159 5,000  Level New York TRACON
Thu 01:15:56 PM 40.7167 -73.6833 37° Northeast 140 161 4,900  Descending New York TRACON
Thu 01:16:56 PM 40.7333 -73.6500 57° Northeast 143 165 5,000 -150 Climbing New York TRACON
Thu 01:17:56 PM 40.7667 -73.6167 37° Northeast 152 175 4,600 -450 Descending New York TRACON
Thu 01:18:56 PM 40.8000 -73.5833 37° Northeast 157 181 4,100 -500 Descending New York TRACON
Thu 01:19:56 PM 40.8333 -73.5500 37° Northeast 156 180 3,600 -500 Descending New York TRACON
Thu 01:20:56 PM 40.8667 -73.5000 49° Northeast 156 180 3,100 -300 Descending New York TRACON
Thu 01:21:56 PM 40.8833 -73.4500 66° East 152 175 3,000 -50 Descending New York TRACON
Thu 01:22:56 PM 40.8833 -73.4000 90° East 144 166 3,000  Level New York TRACON
Thu 01:23:56 PM 40.9000 -73.3500 66° East 140 161 3,000  Level New York TRACON
Thu 01:24:56 PM 40.9333 -73.3333 21° North 144 166 3,000  Level New York TRACON
Thu 01:25:56 PM 40.9667 -73.3333 360° North 132 152 3,000  Level New York TRACON
Thu 01:26:56 PM 41.0000 -73.3500 339° North 131 151 3,000 -150 Level New York TRACON
Thu 01:27:56 PM 41.0333 -73.3333 21° North 134 154 2,700 -400 Descending New York TRACON
Thu 01:28:56 PM 41.0667 -73.3167 21° North 140 161 2,200 -350 Descending New York TRACON
Thu 01:29:56 PM 41.0833 -73.2667 66° East 133 153 2,000 -100 Descending New York TRACON
Thu 01:30:56 PM 41.1000 -73.2333 56° Northeast 110 127 2,000 -300 Level New York TRACON
Thu 01:31:56 PM 41.1167 -73.2000 56° Northeast 111 128 1,400 -600 Descending New York TRACON

Login

Don't have an account? Register now (free) for customized features, flight alerts, and more!